Latest Weather Observations for St Lawrence

IDQ60801

Issued at 6:05 pm EST Monday 28 July 2014 (issued every 30 minutes, with the page automatically refreshed every 10 minutes)

About weather observations | Map of weather stations | Latest weather observations for QLD | Other Formats
Station Details ID: 033210 Name: ST LAWRENCE Lat: -22.35 Lon: 149.52 Height: 9.19 m
Data from the previous 72 hours. | See also: Recent months at St Lawrence
Date/Time
EST
Temp
°C
App
Temp
°C
Dew
Point
Rel
Hum
%
Delta-T
°C
Wind Press
QNH
hPa
Press
MSL
hPa
Rain
since 9 am
mm
Dir
 
Spd
km/h
Gust
km/h
Spd
kts
Gust
kts
28/06:00pm 19.5 18.4 15.2 76 2.5 NNE 15 19 8 10 1020.3 1020.3 0.0
28/05:30pm 20.4 19.0 14.5 69 3.4 NNE 15 22 8 12 1020.0 - 0.0
28/05:00pm 21.4 19.2 14.3 64 4.1 NE 19 24 10 13 1019.6 1019.6 0.0
28/04:30pm 22.5 20.3 13.3 56 5.3 NE 17 24 9 13 1019.3 - 0.0
28/04:00pm 22.9 20.5 13.9 57 5.2 NE 19 26 10 14 1019.2 1019.2 0.0
28/03:30pm 24.3 21.4 9.5 39 8.1 NNE 15 22 8 12 1019.1 - 0.0
28/03:00pm 24.8 22.4 11.4 43 7.5 NNE 15 19 8 10 1019.2 1019.2 0.0
28/02:30pm 24.6 22.5 11.2 43 7.5 NNE 13 17 7 9 1019.4 - 0.0
28/02:00pm 24.4 21.6 9.9 40 7.9 NNE 15 19 8 10 1019.9 1019.9 0.0
28/01:30pm 24.1 20.9 10.0 41 7.7 NNE 17 20 9 11 1020.3 - 0.0
28/01:00pm 24.0 21.8 12.0 47 6.8 NNE 15 22 8 12 1020.8 1020.8 0.0
28/12:30pm 24.2 22.9 14.9 56 5.6 NNE 15 20 8 11 1021.4 - 0.0
28/12:00pm 24.0 22.6 13.5 52 6.1 NNE 13 17 7 9 1022.0 1022.0 0.0
28/11:30am 23.8 22.8 13.4 52 6.0 NNE 11 17 6 9 1022.5 - 0.0
28/11:00am 22.4 21.9 13.7 58 5.0 S 9 15 5 8 1023.2 1023.2 0.0
28/10:30am 21.7 21.8 14.4 63 4.3 SW 7 9 4 5 1023.5 - 0.0
28/10:00am 20.5 20.7 14.8 70 3.3 WSW 7 11 4 6 1023.9 1023.9 0.0
28/09:30am 19.1 19.7 15.4 79 2.2 S 6 9 3 5 1024.0 - 0.0
28/09:00am 17.3 17.8 15.1 87 1.3 SSW 6 9 3 5 1023.9 1023.9 0.0
28/08:30am 15.2 15.6 14.7 97 0.3 S 6 9 3 5 1023.7 - 0.0
28/08:00am 12.9 13.7 12.6 98 0.2 CALM 0 6 0 3 1023.4 1023.4 0.0
28/07:30am 11.8 11.1 11.3 97 0.3 SSW 6 7 3 4 1023.2 - 0.0
28/07:00am 11.6 10.8 11.0 96 0.3 SW 6 6 3 3 1023.0 1023.0 0.0
28/06:30am 11.7 10.7 11.1 96 0.3 S 7 9 4 5 1022.5 - 0.0
28/06:00am 11.3 10.4 10.5 95 0.4 S 6 9 3 5 1022.3 1022.3 0.0
28/05:30am 11.6 11.9 10.8 95 0.4 CALM 0 6 0 3 1022.0 - 0.0
28/05:00am 11.4 11.7 10.8 96 0.3 CALM 0 0 0 0 1021.7 1021.7 0.0
28/04:30am 10.7 10.7 9.9 95 0.4 CALM 0 0 0 0 1021.4 - 0.0
28/04:00am 11.0 11.1 10.1 94 0.5 CALM 0 0 0 0 1021.2 1021.2 0.0
28/03:30am 11.2 11.3 10.3 94 0.5 CALM 0 0 0 0 1021.4 - 0.0
28/03:00am 11.5 11.7 10.6 94 0.5 CALM 0 0 0 0 1021.5 1021.5 0.0
28/02:30am 11.8 11.2 10.5 92 0.7 NNE 4 7 2 4 1021.5 - 0.0
28/02:00am 12.5 11.7 11.2 92 0.7 S 6 7 3 4 1021.8 1021.8 0.0
28/01:30am 12.8 12.3 11.9 94 0.5 SSW 6 7 3 4 1022.1 - 0.0
28/01:00am 12.8 12.1 11.5 92 0.7 WSW 6 7 3 4 1022.4 1022.4 0.0
28/12:30am 12.8 12.2 11.7 93 0.6 WSW 6 9 3 5 1022.5 - 0.0
28/12:00am 12.9 13.4 11.5 91 0.7 SSW 0 0 0 0 1022.8 1022.8 0.0
 
Date/Time
EST
Temp
°C
App
Temp
°C
Dew
Point
Rel
Hum
%
Delta-T
°C
Wind Press
QNH
hPa
Press
MSL
hPa
Rain
since 9 am
mm
Dir
 
Spd
km/h
Gust
km/h
Spd
kts
Gust
kts
27/11:30pm 13.4 12.9 12.1 92 0.7 SSW 6 9 3 5 1023.0 - 0.0
27/11:00pm 13.8 13.4 12.5 92 0.7 SSW 6 7 3 4 1023.1 1023.1 0.0
27/10:30pm 13.6 14.1 11.5 87 1.1 CALM 0 0 0 0 1023.1 - 0.0
27/10:00pm 14.9 15.8 12.8 87 1.1 CALM 0 0 0 0 1023.0 1023.0 0.0
27/09:30pm 15.5 16.4 12.8 84 1.5 CALM 0 0 0 0 1022.7 - 0.0
27/09:00pm 16.9 17.6 13.4 80 2.0 NE 2 6 1 3 1022.6 1022.6 0.0
27/08:30pm 18.3 18.6 15.0 81 1.9 ENE 7 9 4 5 1022.3 - 0.0
27/08:00pm 17.5 17.4 13.2 76 2.4 ENE 6 7 3 4 1022.0 1022.0 0.0
27/07:30pm 18.9 18.9 14.2 74 2.7 NE 7 9 4 5 1021.7 - 0.0
27/07:00pm 20.3 19.8 14.9 71 3.2 NNE 11 13 6 7 1021.2 1021.2 0.0
27/06:30pm 20.4 19.8 14.7 70 3.3 NNE 11 15 6 8 1020.7 - 0.0
27/06:00pm 20.8 20.2 14.5 67 3.7 NE 11 17 6 9 1020.4 1020.4 0.0
27/05:30pm 23.0 22.9 13.8 56 5.4 NE 7 13 4 7 1020.0 - 0.0
27/05:00pm 23.9 23.4 13.7 53 5.9 NNE 9 13 5 7 1019.8 1019.8 0.0
27/04:30pm 24.1 23.0 14.2 54 5.8 NE 13 19 7 10 1019.9 - 0.0
27/04:00pm 24.6 23.3 13.8 51 6.3 NNE 13 17 7 9 1019.8 1019.8 0.0
27/03:30pm 24.8 22.8 14.0 51 6.4 NNE 17 20 9 11 1020.0 - 0.0
27/03:00pm 24.3 22.5 14.4 54 5.8 NE 17 20 9 11 1020.0 1020.0 0.0
27/02:30pm 24.7 23.4 14.8 54 5.9 NNE 15 20 8 11 1020.2 - 0.0
27/02:00pm 24.7 22.6 14.8 54 5.9 NNE 19 22 10 12 1020.4 1020.4 0.0
27/01:30pm 24.1 22.0 14.8 56 5.5 NNE 19 24 10 13 1020.9 - 0.0
27/01:00pm 24.4 22.5 15.3 57 5.5 NNE 19 22 10 12 1021.5 1021.5 0.0
27/12:30pm 24.4 24.4 15.3 57 5.5 SE 9 19 5 10 1022.0 - 0.0
27/12:00pm 24.8 24.4 14.0 51 6.3 S 9 17 5 9 1022.5 1022.5 0.0
27/11:30am 24.1 23.4 13.3 51 6.3 S 9 15 5 8 1022.9 - 0.0
27/11:00am 23.4 22.5 14.9 59 5.0 E 13 19 7 10 1023.4 1023.4 0.0
27/10:30am 22.3 22.0 15.4 65 4.1 SE 11 17 6 9 1023.8 - 0.0
27/10:00am 21.6 22.2 15.9 70 3.4 S 7 13 4 7 1024.0 1024.0 0.0
27/09:30am 20.6 20.5 16.0 75 2.8 S 11 15 6 8 1024.2 - 0.0
27/09:00am 19.4 19.7 15.9 80 2.1 S 9 17 5 9 1024.1 1024.1 0.0
27/08:30am 17.7 18.3 15.7 88 1.2 SSW 7 11 4 6 1023.9 - 0.0
27/08:00am 15.4 16.8 14.4 94 0.6 CALM 0 0 0 0 1023.7 1023.7 0.0
27/07:30am 13.7 14.3 13.2 97 0.3 SSW 2 6 1 3 1023.6 - 0.0
27/07:00am 11.7 12.0 10.9 95 0.4 CALM 0 4 0 2 1023.4 1023.4 0.0
27/06:30am 11.8 12.1 10.9 94 0.5 CALM 0 0 0 0 1023.2 - 0.0
27/06:00am 13.6 13.4 13.1 97 0.3 SSW 6 7 3 4 1023.0 1023.0 0.0
27/05:30am 12.5 13.0 11.7 95 0.4 CALM 0 0 0 0 1022.5 - 0.0
27/05:00am 12.2 12.6 11.1 93 0.6 CALM 0 0 0 0 1022.4 1022.4 0.0
27/04:30am 13.3 13.3 12.4 94 0.5 SSW 4 6 2 3 1022.4 - 0.0
27/04:00am 13.6 14.1 12.8 95 0.4 SW 2 7 1 4 1022.3 1022.3 0.0
27/03:30am 14.0 15.0 13.1 94 0.5 CALM 0 4 0 2 1022.4 - 0.0
27/03:00am 14.0 14.5 12.9 93 0.6 SSW 2 6 1 3 1022.5 1022.5 0.0
27/02:30am 14.1 13.9 13.0 93 0.6 SSW 6 7 3 4 1022.6 - 0.0
27/02:00am 14.5 15.5 13.2 92 0.7 CALM 0 0 0 0 1022.9 1022.9 0.0
27/01:30am 15.2 16.4 13.7 91 0.8 CALM 0 4 0 2 1023.1 - 0.0
27/01:00am 16.1 16.4 14.6 91 0.9 SW 6 7 3 4 1023.6 1023.6 0.0
27/12:30am 16.8 17.4 15.3 91 0.9 SW 6 7 3 4 1023.9 - 0.0
27/12:00am 16.9 17.5 15.2 90 1.0 WSW 6 7 3 4 1024.1 1024.1 0.0
 
Date/Time
EST
Temp
°C
App
Temp
°C
Dew
Point
Rel
Hum
%
Delta-T
°C
Wind Press
QNH
hPa
Press
MSL
hPa
Rain
since 9 am
mm
Dir
 
Spd
km/h
Gust
km/h
Spd
kts
Gust
kts
26/11:30pm 17.2 19.0 15.4 89 1.1 CALM 0 6 0 3 1024.3 - 0.0
26/11:00pm 17.4 18.9 15.6 89 1.1 SW 2 6 1 3 1024.5 1024.5 0.0
26/10:30pm 17.3 17.9 15.3 88 1.2 W 6 7 3 4 1024.7 - 0.0
26/10:00pm 18.1 18.7 15.4 84 1.6 S 6 7 3 4 1024.8 1024.8 0.0
26/09:30pm 18.6 19.2 15.7 83 1.7 S 7 9 4 5 1025.0 - 0.0
26/09:00pm 18.2 19.7 15.6 85 1.5 SW 2 7 1 4 1025.1 1025.1 0.0
26/08:30pm 18.5 19.2 15.7 84 1.7 SSW 6 9 3 5 1024.8 - 0.0
26/08:00pm 18.2 19.7 15.6 85 1.5 SSW 2 6 1 3 1024.5 1024.5 0.0
26/07:30pm 18.6 19.3 15.5 82 1.8 SSW 6 7 3 4 1024.3 - 0.0
26/07:00pm 19.1 19.7 15.8 81 1.9 SSE 7 9 4 5 1023.9 1023.9 0.0
26/06:30pm 19.4 20.2 15.9 80 2.1 SSE 6 9 3 5 1023.9 - 0.0
26/06:00pm 19.2 19.9 15.7 80 2.1 S 6 7 3 4 1023.6 1023.6 0.0
26/05:30pm 19.6 20.4 15.9 79 2.2 SSW 6 7 3 4 1023.7 - 0.0
26/05:00pm 20.1 22.1 15.9 77 2.5 CALM 0 0 0 0 1023.1 1023.1 0.0
26/04:30pm 20.7 22.0 16.1 75 2.8 S 4 7 2 4 1023.0 - 0.0
26/04:00pm 20.9 22.5 15.9 73 3.0 S 2 6 1 3 1023.1 1023.1 0.0
26/03:30pm 21.0 21.8 15.8 72 3.1 SSW 6 9 3 5 1023.0 - 0.0
26/03:00pm 20.9 21.5 15.9 73 3.0 S 7 9 4 5 1022.9 1022.9 0.0
26/02:30pm 20.9 21.5 15.9 73 3.0 S 7 9 4 5 1022.9 - 0.0
26/02:00pm 21.0 21.8 15.8 72 3.1 S 6 9 3 5 1023.0 1023.0 0.0
26/01:30pm 20.9 21.5 15.7 72 3.1 SSE 7 9 4 5 1023.1 - 0.0
26/01:00pm 21.1 21.8 15.6 71 3.3 S 6 11 3 6 1023.6 1023.6 0.0
26/12:30pm 21.2 21.9 16.0 72 3.1 SSE 7 9 4 5 1024.0 - 0.0
26/12:00pm 20.8 21.5 16.0 74 2.9 SW 7 11 4 6 1024.4 1024.4 0.0
26/11:30am 20.5 21.4 16.1 76 2.6 SSW 6 9 3 5 1024.8 - 0.0
26/11:00am 20.1 21.0 16.1 78 2.4 S 6 7 3 4 1025.2 1025.2 0.0
26/10:30am 19.8 20.5 16.1 79 2.2 SSW 7 11 4 6 1025.4 - 0.0
26/10:00am 19.3 20.0 16.0 81 2.0 S 7 11 4 6 1025.4 1025.4 0.0
26/09:30am 18.4 19.1 16.2 87 1.3 S 7 9 4 5 1025.4 - 0.0
26/09:00am 17.4 18.1 15.6 89 1.1 SSW 6 11 3 6 1025.2 1025.2 0.0
26/08:30am 16.7 17.6 15.2 91 0.9 S 4 7 2 4 1025.0 - 0.0
26/08:00am 15.7 16.8 14.6 93 0.6 SW 2 6 1 3 1025.1 1025.1 0.0
26/07:30am 15.5 16.5 14.4 93 0.6 SSW 2 6 1 3 1024.9 - 0.0
26/07:00am 15.4 16.8 14.3 93 0.6 CALM 0 0 0 0 1024.6 1024.6 0.0
26/06:30am 15.4 15.7 14.4 94 0.6 SW 6 7 3 4 1024.5 - 0.0
26/06:00am 15.2 15.4 14.1 93 0.6 SW 6 7 3 4 1024.2 1024.2 0.0
26/05:30am 15.2 16.2 14.2 94 0.6 SW 2 9 1 5 1024.0 - 0.0
26/05:00am 15.1 16.4 14.1 94 0.6 CALM 0 0 0 0 1023.7 1023.7 0.0
26/04:30am 14.8 15.9 13.5 92 0.7 CALM 0 0 0 0 1023.5 - 0.0
26/04:00am 14.9 16.0 13.6 92 0.7 CALM 0 0 0 0 1023.6 1023.6 0.0
26/03:30am 15.1 16.0 14.0 93 0.6 SW 2 6 1 3 1023.9 - 0.0
26/03:00am 15.1 15.9 13.8 92 0.7 WSW 2 6 1 3 1023.7 1023.7 0.0
26/02:30am 15.3 16.6 14.0 92 0.7 CALM 0 0 0 0 1023.9 - 0.0
26/02:00am 15.0 16.1 13.5 91 0.8 CALM 0 0 0 0 1024.1 1024.1 0.0
26/01:30am 15.5 15.7 14.2 92 0.7 WSW 6 7 3 4 1024.4 - 0.0
26/01:00am 15.2 15.2 13.7 91 0.8 SSW 6 7 3 4 1024.8 1024.8 0.0
26/12:30am 15.5 16.8 14.2 92 0.7 CALM 0 0 0 0 1024.8 - 0.0
26/12:00am 15.2 16.2 13.1 87 1.2 CALM 0 0 0 0 1025.2 1025.2 0.0
 
Date/Time
EST
Temp
°C
App
Temp
°C
Dew
Point
Rel
Hum
%
Delta-T
°C
Wind Press
QNH
hPa
Press
MSL
hPa
Rain
since 9 am
mm
Dir
 
Spd
km/h
Gust
km/h
Spd
kts
Gust
kts
25/11:30pm 15.2 16.1 12.9 86 1.3 CALM 0 0 0 0 1025.3 - 0.0
25/11:00pm 15.5 16.8 14.0 91 0.8 CALM 0 0 0 0 1025.4 1025.4 0.0
25/10:30pm 14.9 15.9 13.3 90 0.9 CALM 0 0 0 0 1025.6 - 0.0
25/10:00pm 15.0 16.1 13.4 90 0.9 CALM 0 0 0 0 1025.6 1025.6 0.0
25/09:30pm 15.8 17.1 14.2 90 0.9 CALM 0 0 0 0 1025.2 - 0.0
25/09:00pm 16.0 17.2 13.7 86 1.3 CALM 0 0 0 0 1025.1 1025.1 0.0
25/08:30pm 16.6 17.9 14.2 86 1.4 CALM 0 0 0 0 1024.8 - 0.0
25/08:00pm 17.8 19.2 14.3 80 2.0 CALM 0 0 0 0 1024.5 1024.5 0.0
25/07:30pm 18.6 20.2 14.9 79 2.2 CALM 0 0 0 0 1024.1 - 0.0
25/07:00pm 19.0 19.5 15.1 78 2.3 NE 6 7 3 4 1023.8 1023.8 0.0
25/06:30pm 19.3 19.8 15.0 76 2.5 NE 6 7 3 4 1023.4 - 0.0

Other Formats:

Comma delimited format used in spreadsheet applications
http://www.bom.gov.au/fwo/IDQ60801/IDQ60801.95369.axf

JavaScript Object Notation format (JSON) in row-major order
http://www.bom.gov.au/fwo/IDQ60801/IDQ60801.95369.json